Purdue University Airport
KLAF : now visible

Airfield :











YOU CAN JOIN US ON...

 
LOGIN :

Register | Disclaimer

   EN    FR    IT 

 









Legend :    VFR   Marginal VFR   IFR   Intensive IFR   Very Intensive IFR
Visi :
Ceiling :
>= 8 km
>= 3000ft
5 to 8 km
1000 to 3000 ft
1500m to 5 km
500 to 1000 ft
800 to 1500m
200 to 500 ft
< 800m
< 200 ft
Symbols :   Thunderstorms  Fog  Heavy snow  Heavy precipitations  Wind > 20 kt






- Airport Elevation : 606 ft
- IATA code : LAF


KLAF - Purdue University

CURRENT METAR :
  • 181054Z AUTO 18007KT 4SM RA BR OVC010 03/02 A2987 RMK AO2 CIG 006V014 SLP120 P0018 T00280017

EXPIRED METARs :
  • 181020Z AUTO 17009G15KT 3SM RA BR OVC008 02/02 A2988 RMK AO2 CIG 007V013 P0006 T00220017
  • 181009Z AUTO 17008G19KT 6SM -RA BR OVC010 02/01 A2988 RMK AO2 CIG 007V013 P0002 T00220011
  • 180954Z AUTO 15010KT 4SM -RA BR BKN009 OVC012 02/01 A2990 RMK AO2 PRESFR SLP128 P0017 T00170006
  • 180910Z AUTO 15009G23KT 4SM RA BR OVC009 01/00 A2996 RMK AO2 CIG 006V014 P0005 T00110000
  • 180854Z AUTO 14010KT 4SM RA BR BKN010 OVC014 01/00 A2997 RMK AO2 CIG 006V012 SLP153 P0016 60025 I3009 T00110000 58058
  • 180826Z AUTO 16010G20KT 4SM RA BR OVC014 01/M01 A3000 RMK AO2 PRESFR P0010 T00061006
  • 180816Z AUTO 16010G20KT 4SM RA BR OVC015 01/M01 A3002 RMK AO2 P0006 T00061006

TAF KLAF
Valid from the 18 at 08:00 until the 19 at 06:00 UTC


180803Z 1808/1906 15014G27KT 2SM -RA BR OVC012 WS020/18040KT
FM181100 18013G27KT 3SM RA OVC007 WS020/20045KT
FM181700 24018G33KT P6SM VCSH OVC006
FM181900 25020G33KT P6SM OVC008
FM190500 27018G28KT P6SM BKN019 AMD LTD TO CLD VIS AND WIND TIL 181400



MET'MAP, your aeronautical weather chart ! - Copyright ORBIFLY December 2007 - Disclaimer

ORBIFLY MET'MAP TEAM :

Programming & Development : Alexandra Zaïnal
Concept & original design : Baudouin d'Aumeries
Assistance for programming : Marc-Olivier Méhu
Technical & hardware support : Manuel Goepfert

Contact : metmap@orbifly.com




SOURCES & CREDITS :

   NOAA       Earth
Advisory